^^
Station Historical Data
Daily Summary for February 25, 2018 Units:  Metric    English   Both
« Previous Day
Next Day »
Daily Weekly Monthly Yearly Custom
  High: Low: Average:
Temperature: -17.8 °C 12.2 °C 15.8 °C
Dew Point: -17.8 °C -2 °C 3.6 °C
Humidity: Humidity% 18% 47%
Wind Speed: 0km/h -1609.1km/h -80.5km/h
Wind Gust: 0km/h - -
Wind- -
Pressure: 0 hPa 1009.4 hPa -
Precipitation: 0 mm    
Historical Graphs
 
 
Tabular Data for February 25, 2018
Time Temperature Dew Point Pressure Wind Wind Speed Wind Gust Humidity Rainfall Rate (Hourly) solar Conditions
-17.8 °C -17.8 °C 0 hPa Calm     Humidity% 0 mm SolarRadiationWatts/m^2 W/m2 Conditions
00:03 15.3 °C 5.5 °C 1012.4 hPa South 27.4 km/h 27.4 km/h 52% 0 mm 0.0 W/m2
00:13 15.1 °C 5.6 °C 1012.4 hPa South 16.3 km/h 24.1 km/h 53% 0 mm 0.0 W/m2
00:18 15.1 °C 5.6 °C 1012.8 hPa South 19.5 km/h 22.5 km/h 53% 0 mm 0.0 W/m2
00:23 15 °C 5.8 °C 1012.8 hPa South 19.5 km/h 27.4 km/h 54% 0 mm 0.0 W/m2
00:28 14.9 °C 5.7 °C 1012.8 hPa South 20.9 km/h 25.7 km/h 54% 0 mm 0.0 W/m2
00:33 14.9 °C 5.9 °C 1012.8 hPa South 24.1 km/h 24.1 km/h 55% 0 mm 0.0 W/m2
00:38 14.8 °C 5.8 °C 1012.8 hPa South 19.5 km/h 24.1 km/h 55% 0 mm 0.0 W/m2
00:48 14.6 °C 5.9 °C 1012.8 hPa South 24.1 km/h 27.4 km/h 56% 0 mm 0.0 W/m2
00:53 14.6 °C 5.9 °C 1012.8 hPa South 19.5 km/h 22.5 km/h 56% 0 mm 0.0 W/m2
00:58 14.5 °C 5.8 °C 1012.4 hPa South 20.9 km/h 29 km/h 56% 0 mm 0.0 W/m2
01:03 14.4 °C 5.7 °C 1012.4 hPa SSW 24.1 km/h 27.4 km/h 56% 0 mm 0.0 W/m2
01:08 14.4 °C 5.7 °C 1012.4 hPa South 16.3 km/h 27.4 km/h 56% 0 mm 0.0 W/m2
01:13 14.3 °C 5.6 °C 1012.4 hPa SSW 19.5 km/h 30.6 km/h 56% 0 mm 0.0 W/m2
01:18 14.2 °C 5.5 °C 1012.4 hPa South 24.1 km/h 29 km/h 56% 0 mm 0.0 W/m2
01:28 14.1 °C 5.5 °C 1012.4 hPa South 16.3 km/h 24.1 km/h 56% 0 mm 0.0 W/m2
01:33 14.1 °C 5.7 °C 1012.4 hPa South 24.1 km/h 24.1 km/h 57% 0 mm 0.0 W/m2
01:38 13.9 °C 5.5 °C 1012.4 hPa SSW 16.3 km/h 20.9 km/h 57% 0 mm 0.0 W/m2
01:48 13.9 °C 5.5 °C 1012.4 hPa SSW 20.9 km/h 22.5 km/h 57% 0 mm 0.0 W/m2
01:53 13.9 °C 5.5 °C 1012.4 hPa SSW 11.1 km/h 20.9 km/h 57% 0 mm 0.0 W/m2
01:58 13.8 °C 5.4 °C 1012.4 hPa SSW 11.1 km/h 22.5 km/h 57% 0 mm 0.0 W/m2
02:04 13.8 °C 5.4 °C 1012.4 hPa SSW 11.1 km/h 16.1 km/h 57% 0 mm 0.0 W/m2
02:09 13.7 °C 5.3 °C 1012.4 hPa SSW 11.1 km/h 17.7 km/h 57% 0 mm 0.0 W/m2
02:14 13.7 °C 5.3 °C 1012.8 hPa SSW 16.3 km/h 19.3 km/h 57% 0 mm 0.0 W/m2
02:24 13.6 °C 5.2 °C 1012.4 hPa SSW 16.3 km/h 20.9 km/h 57% 0 mm 0.0 W/m2
02:29 13.6 °C 5.2 °C 1012.8 hPa SSW 16.3 km/h 19.3 km/h 57% 0 mm 0.0 W/m2
02:34 13.6 °C 5.2 °C 1012.8 hPa SSW 17.7 km/h 17.7 km/h 57% 0 mm 0.0 W/m2
02:39 13.5 °C 5.4 °C 1012.8 hPa SSW 13 km/h 13 km/h 58% 0 mm 0.0 W/m2
02:44 13.4 °C 5.3 °C 1012.8 hPa SSW 14.3 km/h 19.3 km/h 58% 0 mm 0.0 W/m2
02:49 13.4 °C 5.3 °C 1012.4 hPa SSW 13 km/h 17.7 km/h 58% 0 mm 0.0 W/m2
02:54 13.4 °C 5.3 °C 1012.8 hPa SW 14.3 km/h 17.7 km/h 58% 0 mm 0.0 W/m2
02:59 13.4 °C 5.3 °C 1012.8 hPa SW 14.3 km/h 16.1 km/h 58% 0 mm 0.0 W/m2
03:04 13.4 °C 5.3 °C 1012.4 hPa SW 14.3 km/h 16.1 km/h 58% 0 mm 0.0 W/m2
03:09 13.3 °C 5.2 °C 1012.4 hPa SSW 11.1 km/h 14.5 km/h 58% 0 mm 0.0 W/m2
03:14 13.3 °C 5.2 °C 1012.4 hPa SW 7.9 km/h 16.1 km/h 58% 0 mm 0.0 W/m2
03:24 13.3 °C 5.2 °C 1012.4 hPa SW 13 km/h 13 km/h 58% 0 mm 0.0 W/m2
03:29 13.3 °C 5.2 °C 1012.4 hPa SW 9.7 km/h 11.3 km/h 58% 0 mm 0.0 W/m2
03:34 13.2 °C 5.1 °C 1012.4 hPa SW 9.7 km/h 12.9 km/h 58% 0 mm 0.0 W/m2
03:39 13.2 °C 5.1 °C 1012.4 hPa SW 11.1 km/h 12.9 km/h 58% 0 mm 0.0 W/m2
03:44 13.2 °C 5.1 °C 1012.4 hPa SW 13 km/h 13 km/h 58% 0 mm 0.0 W/m2
03:55 13 °C 5.2 °C 1012.4 hPa SW 4.7 km/h 11.3 km/h 59% 0 mm 0.0 W/m2
04:00 12.9 °C 5.1 °C 1012.1 hPa SW 9.7 km/h 11.3 km/h 59% 0 mm 0.0 W/m2
04:05 12.8 °C 5 °C 1012.1 hPa SW 7.9 km/h 11.3 km/h 59% 0 mm 0.0 W/m2
04:10 12.8 °C 5 °C 1012.1 hPa SW 7.9 km/h 9.7 km/h 59% 0 mm 0.0 W/m2
04:15 12.8 °C 5 °C 1012.1 hPa SW 11.1 km/h 12.9 km/h 59% 0 mm 0.0 W/m2
04:20 12.8 °C 5 °C 1012.1 hPa SW 9.7 km/h 16.1 km/h 59% 0 mm 0.0 W/m2
04:30 12.8 °C 4.7 °C 1012.1 hPa SW 16.3 km/h 16.3 km/h 58% 0 mm 0.0 W/m2
04:35 12.7 °C 4.6 °C 1012.1 hPa SW 9.7 km/h 14.5 km/h 58% 0 mm 0.0 W/m2
04:40 12.7 °C 4.6 °C 1012.4 hPa SW 11.1 km/h 14.5 km/h 58% 0 mm 0.0 W/m2
04:50 12.7 °C 4.6 °C 1012.4 hPa SSW 7.9 km/h 11.3 km/h 58% 0 mm 0.0 W/m2
04:55 12.7 °C 4.6 °C 1012.4 hPa SW 7.9 km/h 11.3 km/h 58% 0 mm 0.0 W/m2
05:01 12.7 °C 4.6 °C 1012.4 hPa SW 3.2 km/h 6.4 km/h 58% 0 mm 0.0 W/m2
05:06 12.6 °C 4.3 °C 1012.4 hPa SW 4.7 km/h 6.4 km/h 57% 0 mm 0.0 W/m2
05:11 12.5 °C 4.5 °C 1012.4 hPa SW 6.4 km/h 6.4 km/h 58% 0 mm 0.0 W/m2
05:16 12.4 °C 4.4 °C 1012.4 hPa SW 4.7 km/h 8 km/h 58% 0 mm 0.0 W/m2
05:21 12.3 °C 4.3 °C 1012.4 hPa SW 4.7 km/h 4.8 km/h 58% 0 mm 0.0 W/m2
05:26 12.3 °C 4.3 °C 1012.4 hPa SW 4.7 km/h 8 km/h 58% 0 mm 0.0 W/m2
05:31 12.3 °C 4.3 °C 1012.4 hPa SW 6.4 km/h 8 km/h 58% 0 mm 0.0 W/m2
05:41 12.2 °C 4.2 °C 1012.4 hPa SW 7.9 km/h 9.7 km/h 58% 0 mm 0.0 W/m2
05:46 12.2 °C 3.9 °C 1012.4 hPa SW 7.9 km/h 9.7 km/h 57% 0 mm 0.0 W/m2
05:52 12.3 °C 4 °C 1012.4 hPa SW 9.7 km/h 9.7 km/h 57% 0 mm 0.0 W/m2
06:19 12.4 °C 3.9 °C 1012.4 hPa SW 6.4 km/h 9.7 km/h 56% 0 mm 0.0 W/m2
06:46 12.2 °C 3.7 °C 1012.8 hPa SW 7.9 km/h 9.7 km/h 56% 0 mm 5.0 W/m2
06:54 12.2 °C 3.7 °C 1012.8 hPa SW 7.9 km/h -1607.7 km/h 56% 0 mm 5.0 W/m2
07:04 12.2 °C 3.7 °C 1012.8 hPa North -1609.1 km/h -1607.7 km/h 56% 0 mm 5.0 W/m2
07:10 12.2 °C 3.7 °C 1012.8 hPa North -1609.1 km/h -1607.7 km/h 56% 0 mm 5.0 W/m2
07:16 12.2 °C 3.4 °C 1013.1 hPa North -1609.1 km/h -1607.7 km/h 55% 0 mm 5.0 W/m2
07:22 12.2 °C 3.4 °C 1013.1 hPa North -1609.1 km/h -1607.7 km/h 55% 0 mm 5.0 W/m2
07:32 12.2 °C 3.4 °C 1013.1 hPa North -1609.1 km/h -1607.7 km/h 55% 0 mm 5.0 W/m2
08:14 14.7 °C 3.5 °C 1013.4 hPa North -1609.1 km/h -1607.7 km/h 47% 0 mm 309.0 W/m2
08:27 15.1 °C 3.6 °C 1013.4 hPa SSW 7.9 km/h 8 km/h 46% 0 mm 348.0 W/m2
08:38 15.6 °C 3.4 °C 1013.4 hPa SSW 4.7 km/h 8 km/h 44% 0 mm 387.0 W/m2
08:48 16.1 °C 3.5 °C 1013.4 hPa Calm     43% 0 mm 425.0 W/m2
08:55 16.6 °C 3.3 °C 1013.4 hPa Calm     41% 0 mm 461.0 W/m2
09:05 17.1 °C 3.4 °C 1013.4 hPa Calm     40% 0 mm 496.0 W/m2
09:15 17.4 °C 2.9 °C 1013.1 hPa Calm     38% 0 mm 534.0 W/m2
09:30 18.7 °C 3.3 °C 1013.4 hPa SSW 6.4 km/h 8 km/h 36% 0 mm 577.0 W/m2
09:45 19.6 °C 3.7 °C 1013.1 hPa SE 13 km/h 13 km/h 35% 0 mm 610.0 W/m2
09:55 20.1 °C 4.2 °C 1013.1 hPa Calm   9.7 km/h 35% 0 mm 643.0 W/m2
10:01 20 °C 3.7 °C 1013.1 hPa East 1.4 km/h 12.9 km/h 34% 0 mm 670.0 W/m2
10:11 20.2 °C 3.8 °C 1013.1 hPa East 9.7 km/h 14.5 km/h 34% 0 mm 701.0 W/m2
10:25 20.3 °C 3.5 °C 1013.1 hPa East 16.3 km/h 16.3 km/h 33% 0 mm 735.0 W/m2
10:31 20.8 °C 3.5 °C 1013.1 hPa Calm     32% 0 mm 759.0 W/m2
10:41 21.3 °C 3.9 °C 1012.8 hPa Calm     32% 0 mm 782.0 W/m2
11:16 21.7 °C 3.4 °C 1012.8 hPa Calm   14.5 km/h 30% 0 mm 851.0 W/m2
11:25 21.6 °C 3.3 °C 1012.8 hPa NE 11.1 km/h 16.1 km/h 30% 0 mm 872.0 W/m2
11:36 22.2 °C 3.8 °C 1012.8 hPa Calm   14.5 km/h 30% 0 mm 891.0 W/m2
11:44 22 °C 3.1 °C 1012.8 hPa Calm     29% 0 mm 905.0 W/m2
11:59 22.6 °C 3.2 °C 1012.4 hPa Calm     28% 0 mm 928.0 W/m2
12:04 22.9 °C 2.9 °C 1012.4 hPa NE 7.9 km/h 11.3 km/h 27% 0 mm 935.0 W/m2
12:15 23.2 °C 3.2 °C 1012.4 hPa Calm     27% 0 mm 942.0 W/m2
12:47 23.7 °C 1.9 °C 1011.7 hPa Calm     24% 0 mm 962.0 W/m2
13:18 24.9 °C 2.3 °C 1011.4 hPa Calm     23% 0 mm 960.0 W/m2
22:38 24 °C -1.8 °C 1009.7 hPa East 14.3 km/h 20.9 km/h 18% 0 mm 0.0 W/m2
22:43 23.9 °C -1.9 °C 1009.7 hPa East 13 km/h 17.7 km/h 18% 0 mm 0.0 W/m2
22:49 23.8 °C -2 °C 1009.7 hPa East 14.3 km/h 20.9 km/h 18% 0 mm 0.0 W/m2
22:56 23.8 °C -1.2 °C 1009.7 hPa East 16.3 km/h 22.5 km/h 19% 0 mm 0.0 W/m2
23:05 23.9 °C -1.1 °C 1009.7 hPa ESE 20.9 km/h 22.5 km/h 19% 0 mm 0.0 W/m2
23:15 23.9 °C -1.1 °C 1009.4 hPa ESE 16.3 km/h 24.1 km/h 19% 0 mm 0.0 W/m2
23:25 23.8 °C -1.2 °C 1009.7 hPa ESE 19.5 km/h 25.7 km/h 19% 0 mm 0.0 W/m2
23:30 23.8 °C -1.2 °C 1009.7 hPa ESE 13 km/h 27.4 km/h 19% 0 mm 0.0 W/m2
23:35 23.7 °C -1.3 °C 1009.7 hPa ESE 22.7 km/h 24.1 km/h 19% 0 mm 0.0 W/m2
23:40 23.7 °C -0.6 °C 1009.7 hPa ESE 22.7 km/h 25.7 km/h 20% 0 mm 0.0 W/m2
23:45 23.6 °C -0.7 °C 1009.7 hPa ESE 17.7 km/h 20.9 km/h 20% 0 mm 0.0 W/m2
23:50 23.4 °C -0.8 °C 1009.7 hPa ESE 13 km/h 22.5 km/h 20% 0 mm 0.0 W/m2
23:55 23.3 °C -0.9 °C 1009.7 hPa ESE 17.7 km/h 24.1 km/h 20% 0 mm 0.0 W/m2
Canyon Roadhouse, Fishriver Canyon, Namibia
Compliments of Weather Underground - 2.25 mb